sensor_id;sensor_type;location;lat;lon;timestamp;temperature;humidity
21108;DHT22;10712;52.944;9.098;2024-02-14T00:00:19;6.90;84.40
21108;DHT22;10712;52.944;9.098;2024-02-14T00:02:47;6.90;84.50
21108;DHT22;10712;52.944;9.098;2024-02-14T00:05:15;6.90;84.60
21108;DHT22;10712;52.944;9.098;2024-02-14T00:07:41;6.90;84.50
21108;DHT22;10712;52.944;9.098;2024-02-14T00:10:07;6.90;84.60
21108;DHT22;10712;52.944;9.098;2024-02-14T00:12:35;6.90;84.70
21108;DHT22;10712;52.944;9.098;2024-02-14T00:15:07;6.90;84.80
21108;DHT22;10712;52.944;9.098;2024-02-14T00:17:34;6.90;84.90
21108;DHT22;10712;52.944;9.098;2024-02-14T00:20:03;6.90;85.10
21108;DHT22;10712;52.944;9.098;2024-02-14T00:22:31;6.80;85.20
21108;DHT22;10712;52.944;9.098;2024-02-14T00:24:57;6.80;85.50
21108;DHT22;10712;52.944;9.098;2024-02-14T00:27:22;6.80;85.70
21108;DHT22;10712;52.944;9.098;2024-02-14T00:29:49;6.80;85.80
21108;DHT22;10712;52.944;9.098;2024-02-14T00:32:16;6.80;85.90
21108;DHT22;10712;52.944;9.098;2024-02-14T00:34:42;6.80;86.10
21108;DHT22;10712;52.944;9.098;2024-02-14T00:37:07;6.80;86.20
21108;DHT22;10712;52.944;9.098;2024-02-14T00:39:33;6.80;86.30
21108;DHT22;10712;52.944;9.098;2024-02-14T00:41:59;6.80;86.50
21108;DHT22;10712;52.944;9.098;2024-02-14T00:44:25;6.70;86.60
21108;DHT22;10712;52.944;9.098;2024-02-14T00:46:56;6.70;86.80
21108;DHT22;10712;52.944;9.098;2024-02-14T00:49:24;6.70;87.10
21108;DHT22;10712;52.944;9.098;2024-02-14T00:51:51;6.70;87.20
21108;DHT22;10712;52.944;9.098;2024-02-14T00:54:16;6.70;87.30
21108;DHT22;10712;52.944;9.098;2024-02-14T00:56:42;6.70;87.50
21108;DHT22;10712;52.944;9.098;2024-02-14T00:59:08;6.60;87.70
21108;DHT22;10712;52.944;9.098;2024-02-14T01:01:34;6.60;87.80
21108;DHT22;10712;52.944;9.098;2024-02-14T01:03:59;6.60;87.90
21108;DHT22;10712;52.944;9.098;2024-02-14T01:06:25;6.60;88.10
21108;DHT22;10712;52.944;9.098;2024-02-14T01:08:51;6.60;88.40
21108;DHT22;10712;52.944;9.098;2024-02-14T01:11:17;6.60;88.40
21108;DHT22;10712;52.944;9.098;2024-02-14T01:13:43;6.60;88.50
21108;DHT22;10712;52.944;9.098;2024-02-14T01:16:09;6.60;88.60
21108;DHT22;10712;52.944;9.098;2024-02-14T01:18:35;6.60;88.70
21108;DHT22;10712;52.944;9.098;2024-02-14T01:21:01;6.60;88.80
21108;DHT22;10712;52.944;9.098;2024-02-14T01:23:27;6.60;88.90
21108;DHT22;10712;52.944;9.098;2024-02-14T01:25:53;6.60;89.00
21108;DHT22;10712;52.944;9.098;2024-02-14T01:28:20;6.60;89.20
21108;DHT22;10712;52.944;9.098;2024-02-14T01:30:46;6.60;89.30
21108;DHT22;10712;52.944;9.098;2024-02-14T01:33:12;6.60;89.40
21108;DHT22;10712;52.944;9.098;2024-02-14T01:35:38;6.60;89.60
21108;DHT22;10712;52.944;9.098;2024-02-14T01:38:04;6.60;89.70
21108;DHT22;10712;52.944;9.098;2024-02-14T01:40:31;6.60;89.90
21108;DHT22;10712;52.944;9.098;2024-02-14T01:42:57;6.60;90.00
21108;DHT22;10712;52.944;9.098;2024-02-14T01:45:23;6.50;90.20
21108;DHT22;10712;52.944;9.098;2024-02-14T01:47:49;6.50;90.40
21108;DHT22;10712;52.944;9.098;2024-02-14T01:50:16;6.50;90.50
21108;DHT22;10712;52.944;9.098;2024-02-14T01:52:44;6.50;90.60
21108;DHT22;10712;52.944;9.098;2024-02-14T01:55:12;6.50;90.80
21108;DHT22;10712;52.944;9.098;2024-02-14T01:57:39;6.50;90.90
21108;DHT22;10712;52.944;9.098;2024-02-14T02:00:06;6.50;91.00
21108;DHT22;10712;52.944;9.098;2024-02-14T02:02:38;6.50;91.10
21108;DHT22;10712;52.944;9.098;2024-02-14T02:05:07;6.50;91.20
21108;DHT22;10712;52.944;9.098;2024-02-14T02:07:33;6.50;91.40
21108;DHT22;10712;52.944;9.098;2024-02-14T02:09:59;6.50;91.50
21108;DHT22;10712;52.944;9.098;2024-02-14T02:12:25;6.50;91.60
21108;DHT22;10712;52.944;9.098;2024-02-14T02:14:53;6.50;91.70
21108;DHT22;10712;52.944;9.098;2024-02-14T02:17:19;6.50;91.80
21108;DHT22;10712;52.944;9.098;2024-02-14T02:19:44;6.50;91.90
21108;DHT22;10712;52.944;9.098;2024-02-14T02:22:10;6.50;92.00
21108;DHT22;10712;52.944;9.098;2024-02-14T02:24:36;6.50;92.10
21108;DHT22;10712;52.944;9.098;2024-02-14T02:27:03;6.50;92.20
21108;DHT22;10712;52.944;9.098;2024-02-14T02:29:29;6.50;92.30
21108;DHT22;10712;52.944;9.098;2024-02-14T02:31:56;6.50;92.30
21108;DHT22;10712;52.944;9.098;2024-02-14T02:34:22;6.50;92.40
21108;DHT22;10712;52.944;9.098;2024-02-14T02:36:48;6.50;92.50
21108;DHT22;10712;52.944;9.098;2024-02-14T02:39:16;6.50;92.60
21108;DHT22;10712;52.944;9.098;2024-02-14T02:41:41;6.50;92.70
21108;DHT22;10712;52.944;9.098;2024-02-14T02:44:07;6.60;92.70
21108;DHT22;10712;52.944;9.098;2024-02-14T02:46:33;6.60;92.80
21108;DHT22;10712;52.944;9.098;2024-02-14T02:48:59;6.60;92.90
21108;DHT22;10712;52.944;9.098;2024-02-14T02:51:25;6.60;92.90
21108;DHT22;10712;52.944;9.098;2024-02-14T02:53:51;6.60;93.00
21108;DHT22;10712;52.944;9.098;2024-02-14T02:56:18;6.60;93.10
21108;DHT22;10712;52.944;9.098;2024-02-14T02:58:44;6.60;93.20
21108;DHT22;10712;52.944;9.098;2024-02-14T03:01:11;6.60;93.20
21108;DHT22;10712;52.944;9.098;2024-02-14T03:03:38;6.60;93.30
21108;DHT22;10712;52.944;9.098;2024-02-14T03:06:05;6.60;93.50
21108;DHT22;10712;52.944;9.098;2024-02-14T03:08:31;6.50;93.60
21108;DHT22;10712;52.944;9.098;2024-02-14T03:11:08;6.50;93.70
21108;DHT22;10712;52.944;9.098;2024-02-14T03:13:34;6.50;93.70
21108;DHT22;10712;52.944;9.098;2024-02-14T03:16:01;6.50;93.80
21108;DHT22;10712;52.944;9.098;2024-02-14T03:18:27;6.50;93.90
21108;DHT22;10712;52.944;9.098;2024-02-14T03:20:53;6.50;94.00
21108;DHT22;10712;52.944;9.098;2024-02-14T03:23:19;6.50;94.00
21108;DHT22;10712;52.944;9.098;2024-02-14T03:25:45;6.50;94.10
21108;DHT22;10712;52.944;9.098;2024-02-14T03:28:11;6.50;94.20
21108;DHT22;10712;52.944;9.098;2024-02-14T03:30:38;6.50;94.20
21108;DHT22;10712;52.944;9.098;2024-02-14T03:33:05;6.50;94.30
21108;DHT22;10712;52.944;9.098;2024-02-14T03:35:33;6.50;94.30
21108;DHT22;10712;52.944;9.098;2024-02-14T03:38:02;6.50;94.30
21108;DHT22;10712;52.944;9.098;2024-02-14T03:40:29;6.50;94.30
21108;DHT22;10712;52.944;9.098;2024-02-14T03:42:56;6.50;94.30
21108;DHT22;10712;52.944;9.098;2024-02-14T03:45:22;6.50;94.30
21108;DHT22;10712;52.944;9.098;2024-02-14T03:47:48;6.50;94.30
21108;DHT22;10712;52.944;9.098;2024-02-14T03:50:14;6.40;94.30
21108;DHT22;10712;52.944;9.098;2024-02-14T03:52:42;6.40;94.30
21108;DHT22;10712;52.944;9.098;2024-02-14T03:55:12;6.40;94.30
21108;DHT22;10712;52.944;9.098;2024-02-14T03:57:39;6.50;94.30
21108;DHT22;10712;52.944;9.098;2024-02-14T04:00:05;6.40;94.30
21108;DHT22;10712;52.944;9.098;2024-02-14T04:02:39;6.50;94.30
21108;DHT22;10712;52.944;9.098;2024-02-14T04:05:05;6.40;94.30
21108;DHT22;10712;52.944;9.098;2024-02-14T04:07:32;6.50;94.30
21108;DHT22;10712;52.944;9.098;2024-02-14T04:10:00;6.40;94.30
21108;DHT22;10712;52.944;9.098;2024-02-14T04:12:25;6.50;94.30
21108;DHT22;10712;52.944;9.098;2024-02-14T04:14:51;6.50;94.30
21108;DHT22;10712;52.944;9.098;2024-02-14T04:17:17;6.50;94.30
21108;DHT22;10712;52.944;9.098;2024-02-14T04:19:43;6.50;94.30
21108;DHT22;10712;52.944;9.098;2024-02-14T04:22:08;6.50;94.30
21108;DHT22;10712;52.944;9.098;2024-02-14T04:24:34;6.50;94.30
21108;DHT22;10712;52.944;9.098;2024-02-14T04:27:01;6.50;94.30
21108;DHT22;10712;52.944;9.098;2024-02-14T04:29:29;6.50;94.30
21108;DHT22;10712;52.944;9.098;2024-02-14T04:32:01;6.50;94.30
21108;DHT22;10712;52.944;9.098;2024-02-14T04:34:28;6.50;94.30
21108;DHT22;10712;52.944;9.098;2024-02-14T04:36:55;6.50;94.30
21108;DHT22;10712;52.944;9.098;2024-02-14T04:39:22;6.50;94.30
21108;DHT22;10712;52.944;9.098;2024-02-14T04:41:47;6.50;94.30
21108;DHT22;10712;52.944;9.098;2024-02-14T04:44:15;6.50;94.30
21108;DHT22;10712;52.944;9.098;2024-02-14T04:46:41;6.50;94.30
21108;DHT22;10712;52.944;9.098;2024-02-14T04:49:09;6.50;94.30
21108;DHT22;10712;52.944;9.098;2024-02-14T04:51:35;6.50;94.30
21108;DHT22;10712;52.944;9.098;2024-02-14T04:54:01;6.50;94.30
21108;DHT22;10712;52.944;9.098;2024-02-14T04:56:27;6.50;94.30
21108;DHT22;10712;52.944;9.098;2024-02-14T04:58:53;6.50;94.30
21108;DHT22;10712;52.944;9.098;2024-02-14T05:01:20;6.60;94.30
21108;DHT22;10712;52.944;9.098;2024-02-14T05:03:46;6.50;94.30
21108;DHT22;10712;52.944;9.098;2024-02-14T05:06:13;6.60;94.30
21108;DHT22;10712;52.944;9.098;2024-02-14T05:08:38;6.60;94.30
21108;DHT22;10712;52.944;9.098;2024-02-14T05:11:04;6.60;94.30
21108;DHT22;10712;52.944;9.098;2024-02-14T05:13:30;6.60;94.30
21108;DHT22;10712;52.944;9.098;2024-02-14T05:15:56;6.60;94.30
21108;DHT22;10712;52.944;9.098;2024-02-14T05:18:22;6.60;94.30
21108;DHT22;10712;52.944;9.098;2024-02-14T05:20:48;6.60;94.30
21108;DHT22;10712;52.944;9.098;2024-02-14T05:23:15;6.60;94.30
21108;DHT22;10712;52.944;9.098;2024-02-14T05:25:43;6.60;94.30
21108;DHT22;10712;52.944;9.098;2024-02-14T05:28:09;6.60;94.30
21108;DHT22;10712;52.944;9.098;2024-02-14T05:30:43;6.60;94.30
21108;DHT22;10712;52.944;9.098;2024-02-14T05:33:08;6.60;94.30
21108;DHT22;10712;52.944;9.098;2024-02-14T05:35:34;6.60;94.30
21108;DHT22;10712;52.944;9.098;2024-02-14T05:38:00;6.70;94.30
21108;DHT22;10712;52.944;9.098;2024-02-14T05:40:26;6.70;94.30
21108;DHT22;10712;52.944;9.098;2024-02-14T05:42:52;6.70;94.30
21108;DHT22;10712;52.944;9.098;2024-02-14T05:45:18;6.70;94.30
21108;DHT22;10712;52.944;9.098;2024-02-14T05:47:43;6.70;94.30
21108;DHT22;10712;52.944;9.098;2024-02-14T05:50:09;6.70;94.30
21108;DHT22;10712;52.944;9.098;2024-02-14T05:52:37;6.80;94.30
21108;DHT22;10712;52.944;9.098;2024-02-14T05:55:04;6.80;94.30
21108;DHT22;10712;52.944;9.098;2024-02-14T05:57:31;6.80;94.30
21108;DHT22;10712;52.944;9.098;2024-02-14T05:59:56;6.90;94.30
21108;DHT22;10712;52.944;9.098;2024-02-14T06:02:22;7.00;94.30
21108;DHT22;10712;52.944;9.098;2024-02-14T06:04:48;7.00;94.30
21108;DHT22;10712;52.944;9.098;2024-02-14T06:07:14;7.00;94.30
21108;DHT22;10712;52.944;9.098;2024-02-14T06:09:39;7.10;94.30
21108;DHT22;10712;52.944;9.098;2024-02-14T06:12:06;7.20;94.30
21108;DHT22;10712;52.944;9.098;2024-02-14T06:14:32;7.20;94.30
21108;DHT22;10712;52.944;9.098;2024-02-14T06:16:59;7.20;94.30
21108;DHT22;10712;52.944;9.098;2024-02-14T06:19:27;7.20;94.30
21108;DHT22;10712;52.944;9.098;2024-02-14T06:21:53;7.30;94.30
21108;DHT22;10712;52.944;9.098;2024-02-14T06:24:19;7.30;94.30
21108;DHT22;10712;52.944;9.098;2024-02-14T06:26:48;7.30;94.30
21108;DHT22;10712;52.944;9.098;2024-02-14T06:29:13;7.30;94.30
21108;DHT22;10712;52.944;9.098;2024-02-14T06:31:39;7.40;94.30
21108;DHT22;10712;52.944;9.098;2024-02-14T06:34:05;7.40;94.30
21108;DHT22;10712;52.944;9.098;2024-02-14T06:36:32;7.40;94.30
21108;DHT22;10712;52.944;9.098;2024-02-14T06:38:58;7.40;94.30
21108;DHT22;10712;52.944;9.098;2024-02-14T06:41:24;7.40;94.30
21108;DHT22;10712;52.944;9.098;2024-02-14T06:43:50;7.40;94.30
21108;DHT22;10712;52.944;9.098;2024-02-14T06:46:16;7.40;94.30
21108;DHT22;10712;52.944;9.098;2024-02-14T06:48:42;7.40;94.30
21108;DHT22;10712;52.944;9.098;2024-02-14T06:51:08;7.40;94.30
21108;DHT22;10712;52.944;9.098;2024-02-14T06:53:33;7.40;94.30
21108;DHT22;10712;52.944;9.098;2024-02-14T06:56:00;7.40;94.30
21108;DHT22;10712;52.944;9.098;2024-02-14T06:58:26;7.50;94.30
21108;DHT22;10712;52.944;9.098;2024-02-14T07:00:51;7.50;94.30
21108;DHT22;10712;52.944;9.098;2024-02-14T07:03:17;7.50;94.30
21108;DHT22;10712;52.944;9.098;2024-02-14T07:05:43;7.60;94.30
21108;DHT22;10712;52.944;9.098;2024-02-14T07:08:09;7.60;94.30
21108;DHT22;10712;52.944;9.098;2024-02-14T07:10:35;7.60;94.30
21108;DHT22;10712;52.944;9.098;2024-02-14T07:13:01;7.60;94.30
21108;DHT22;10712;52.944;9.098;2024-02-14T07:15:27;7.60;94.30
21108;DHT22;10712;52.944;9.098;2024-02-14T07:17:54;7.60;94.30
21108;DHT22;10712;52.944;9.098;2024-02-14T07:20:21;7.70;94.30
21108;DHT22;10712;52.944;9.098;2024-02-14T07:22:48;7.70;94.30
21108;DHT22;10712;52.944;9.098;2024-02-14T07:25:21;7.80;94.30
21108;DHT22;10712;52.944;9.098;2024-02-14T07:27:47;7.80;94.30
21108;DHT22;10712;52.944;9.098;2024-02-14T07:30:15;7.80;94.30
21108;DHT22;10712;52.944;9.098;2024-02-14T07:32:43;7.90;94.30
21108;DHT22;10712;52.944;9.098;2024-02-14T07:35:10;7.90;94.30
21108;DHT22;10712;52.944;9.098;2024-02-14T07:37:36;7.90;94.30
21108;DHT22;10712;52.944;9.098;2024-02-14T07:40:03;8.00;94.30
21108;DHT22;10712;52.944;9.098;2024-02-14T07:42:29;8.00;94.30
21108;DHT22;10712;52.944;9.098;2024-02-14T07:44:55;8.00;94.30
21108;DHT22;10712;52.944;9.098;2024-02-14T07:47:22;8.10;94.30
21108;DHT22;10712;52.944;9.098;2024-02-14T07:49:48;8.10;94.30
21108;DHT22;10712;52.944;9.098;2024-02-14T07:52:14;8.10;94.30
21108;DHT22;10712;52.944;9.098;2024-02-14T07:54:39;8.20;94.30
21108;DHT22;10712;52.944;9.098;2024-02-14T07:57:06;8.20;94.30
21108;DHT22;10712;52.944;9.098;2024-02-14T07:59:32;8.20;94.30
21108;DHT22;10712;52.944;9.098;2024-02-14T08:01:58;8.20;94.30
21108;DHT22;10712;52.944;9.098;2024-02-14T08:04:24;8.30;94.30
21108;DHT22;10712;52.944;9.098;2024-02-14T08:06:50;8.30;94.30
21108;DHT22;10712;52.944;9.098;2024-02-14T08:09:16;8.30;94.30
21108;DHT22;10712;52.944;9.098;2024-02-14T08:11:42;8.30;94.30
21108;DHT22;10712;52.944;9.098;2024-02-14T08:14:08;8.30;94.30
21108;DHT22;10712;52.944;9.098;2024-02-14T08:16:34;8.40;94.30
21108;DHT22;10712;52.944;9.098;2024-02-14T08:19:01;8.50;94.30
21108;DHT22;10712;52.944;9.098;2024-02-14T08:21:28;8.50;94.30
21108;DHT22;10712;52.944;9.098;2024-02-14T08:23:54;8.50;94.30
21108;DHT22;10712;52.944;9.098;2024-02-14T08:26:21;8.50;94.30
21108;DHT22;10712;52.944;9.098;2024-02-14T08:28:51;8.50;94.30
21108;DHT22;10712;52.944;9.098;2024-02-14T08:31:17;8.50;94.30
21108;DHT22;10712;52.944;9.098;2024-02-14T08:33:42;8.60;94.30
21108;DHT22;10712;52.944;9.098;2024-02-14T08:36:08;8.60;94.30
21108;DHT22;10712;52.944;9.098;2024-02-14T08:38:35;8.70;94.30
21108;DHT22;10712;52.944;9.098;2024-02-14T08:41:01;8.70;94.30
21108;DHT22;10712;52.944;9.098;2024-02-14T08:43:28;8.70;94.30
21108;DHT22;10712;52.944;9.098;2024-02-14T08:45:55;8.70;94.30
21108;DHT22;10712;52.944;9.098;2024-02-14T08:48:21;8.70;94.30
21108;DHT22;10712;52.944;9.098;2024-02-14T08:50:47;8.70;94.30
21108;DHT22;10712;52.944;9.098;2024-02-14T08:53:14;8.80;94.30
21108;DHT22;10712;52.944;9.098;2024-02-14T08:55:40;8.80;94.30
21108;DHT22;10712;52.944;9.098;2024-02-14T08:58:06;8.90;94.30
21108;DHT22;10712;52.944;9.098;2024-02-14T09:00:35;8.90;94.30
21108;DHT22;10712;52.944;9.098;2024-02-14T09:03:05;8.90;94.30
21108;DHT22;10712;52.944;9.098;2024-02-14T09:05:31;8.90;94.30
21108;DHT22;10712;52.944;9.098;2024-02-14T09:07:57;9.00;94.30
21108;DHT22;10712;52.944;9.098;2024-02-14T09:10:32;9.00;94.30
21108;DHT22;10712;52.944;9.098;2024-02-14T09:12:58;9.10;94.30
21108;DHT22;10712;52.944;9.098;2024-02-14T09:15:24;9.20;94.30
21108;DHT22;10712;52.944;9.098;2024-02-14T09:17:49;9.20;94.30
21108;DHT22;10712;52.944;9.098;2024-02-14T09:20:17;9.20;94.30
21108;DHT22;10712;52.944;9.098;2024-02-14T09:22:44;9.30;94.30
21108;DHT22;10712;52.944;9.098;2024-02-14T09:25:10;9.30;94.30
21108;DHT22;10712;52.944;9.098;2024-02-14T09:27:36;9.40;94.30
21108;DHT22;10712;52.944;9.098;2024-02-14T09:30:03;9.40;94.30
21108;DHT22;10712;52.944;9.098;2024-02-14T09:32:33;9.40;94.30
21108;DHT22;10712;52.944;9.098;2024-02-14T09:34:59;9.40;94.30
21108;DHT22;10712;52.944;9.098;2024-02-14T09:37:26;9.50;94.30
21108;DHT22;10712;52.944;9.098;2024-02-14T09:39:54;9.50;94.30
21108;DHT22;10712;52.944;9.098;2024-02-14T09:42:27;9.60;94.30
21108;DHT22;10712;52.944;9.098;2024-02-14T09:44:59;9.60;94.30
21108;DHT22;10712;52.944;9.098;2024-02-14T09:47:27;9.60;94.30
21108;DHT22;10712;52.944;9.098;2024-02-14T09:49:59;9.60;94.30
21108;DHT22;10712;52.944;9.098;2024-02-14T09:52:28;9.60;94.30
21108;DHT22;10712;52.944;9.098;2024-02-14T09:54:57;9.70;94.30
21108;DHT22;10712;52.944;9.098;2024-02-14T09:57:23;9.70;94.30
21108;DHT22;10712;52.944;9.098;2024-02-14T09:59:50;9.70;94.30
21108;DHT22;10712;52.944;9.098;2024-02-14T10:02:17;9.80;94.30
21108;DHT22;10712;52.944;9.098;2024-02-14T10:04:43;9.80;94.30
21108;DHT22;10712;52.944;9.098;2024-02-14T10:07:09;9.90;94.30
21108;DHT22;10712;52.944;9.098;2024-02-14T10:09:41;9.90;94.30
21108;DHT22;10712;52.944;9.098;2024-02-14T10:12:08;9.90;94.30
21108;DHT22;10712;52.944;9.098;2024-02-14T10:14:35;10.00;94.30
21108;DHT22;10712;52.944;9.098;2024-02-14T10:17:06;10.00;94.30
21108;DHT22;10712;52.944;9.098;2024-02-14T10:19:33;10.00;94.30
21108;DHT22;10712;52.944;9.098;2024-02-14T10:22:00;10.10;94.30
21108;DHT22;10712;52.944;9.098;2024-02-14T10:24:29;10.10;94.30
21108;DHT22;10712;52.944;9.098;2024-02-14T10:26:58;10.10;94.30
21108;DHT22;10712;52.944;9.098;2024-02-14T10:29:25;10.10;94.30
21108;DHT22;10712;52.944;9.098;2024-02-14T10:31:54;10.10;94.30
21108;DHT22;10712;52.944;9.098;2024-02-14T10:34:24;10.20;94.30
21108;DHT22;10712;52.944;9.098;2024-02-14T10:36:53;10.20;94.30
21108;DHT22;10712;52.944;9.098;2024-02-14T10:39:25;10.30;94.30
21108;DHT22;10712;52.944;9.098;2024-02-14T10:41:52;10.30;94.30
21108;DHT22;10712;52.944;9.098;2024-02-14T10:44:18;10.30;94.30
21108;DHT22;10712;52.944;9.098;2024-02-14T10:46:44;10.30;94.30
21108;DHT22;10712;52.944;9.098;2024-02-14T10:49:12;10.40;94.30
21108;DHT22;10712;52.944;9.098;2024-02-14T10:51:43;10.40;94.30
21108;DHT22;10712;52.944;9.098;2024-02-14T10:54:11;10.40;94.30
21108;DHT22;10712;52.944;9.098;2024-02-14T10:56:39;10.40;94.30
21108;DHT22;10712;52.944;9.098;2024-02-14T10:59:11;10.40;94.30
21108;DHT22;10712;52.944;9.098;2024-02-14T11:01:42;10.40;94.30
21108;DHT22;10712;52.944;9.098;2024-02-14T11:04:09;10.50;94.30
21108;DHT22;10712;52.944;9.098;2024-02-14T11:06:47;10.50;94.30
21108;DHT22;10712;52.944;9.098;2024-02-14T11:09:14;10.50;94.30
21108;DHT22;10712;52.944;9.098;2024-02-14T11:11:44;10.50;94.30
21108;DHT22;10712;52.944;9.098;2024-02-14T11:14:10;10.50;94.30
21108;DHT22;10712;52.944;9.098;2024-02-14T11:16:40;10.50;94.30
21108;DHT22;10712;52.944;9.098;2024-02-14T11:19:09;10.60;94.30
21108;DHT22;10712;52.944;9.098;2024-02-14T11:21:40;10.60;94.30
21108;DHT22;10712;52.944;9.098;2024-02-14T11:24:11;10.60;94.30
21108;DHT22;10712;52.944;9.098;2024-02-14T11:26:46;10.60;94.30
21108;DHT22;10712;52.944;9.098;2024-02-14T11:29:16;10.60;94.30
21108;DHT22;10712;52.944;9.098;2024-02-14T11:31:43;10.60;94.30
21108;DHT22;10712;52.944;9.098;2024-02-14T11:34:13;10.60;94.30
21108;DHT22;10712;52.944;9.098;2024-02-14T11:36:43;10.70;94.30
21108;DHT22;10712;52.944;9.098;2024-02-14T11:39:10;10.60;94.30
21108;DHT22;10712;52.944;9.098;2024-02-14T11:41:37;10.60;94.30
21108;DHT22;10712;52.944;9.098;2024-02-14T11:44:06;10.60;94.30
21108;DHT22;10712;52.944;9.098;2024-02-14T11:46:33;10.60;94.30
21108;DHT22;10712;52.944;9.098;2024-02-14T11:49:04;10.60;94.30
21108;DHT22;10712;52.944;9.098;2024-02-14T11:51:33;10.60;94.30
21108;DHT22;10712;52.944;9.098;2024-02-14T11:54:01;10.60;94.30
21108;DHT22;10712;52.944;9.098;2024-02-14T11:56:34;10.60;94.30
21108;DHT22;10712;52.944;9.098;2024-02-14T11:59:02;10.60;94.30
21108;DHT22;10712;52.944;9.098;2024-02-14T12:01:34;10.60;94.30
21108;DHT22;10712;52.944;9.098;2024-02-14T12:04:02;10.70;94.30
21108;DHT22;10712;52.944;9.098;2024-02-14T12:06:30;10.70;94.30
21108;DHT22;10712;52.944;9.098;2024-02-14T12:09:01;10.70;94.30
21108;DHT22;10712;52.944;9.098;2024-02-14T12:11:34;10.80;94.30
21108;DHT22;10712;52.944;9.098;2024-02-14T12:14:07;10.80;94.30
21108;DHT22;10712;52.944;9.098;2024-02-14T12:16:34;10.80;94.30
21108;DHT22;10712;52.944;9.098;2024-02-14T12:19:09;10.80;94.30
21108;DHT22;10712;52.944;9.098;2024-02-14T12:21:41;10.80;94.30
21108;DHT22;10712;52.944;9.098;2024-02-14T12:24:11;10.80;94.30
21108;DHT22;10712;52.944;9.098;2024-02-14T12:26:40;10.80;94.30
21108;DHT22;10712;52.944;9.098;2024-02-14T12:29:11;10.80;94.30
21108;DHT22;10712;52.944;9.098;2024-02-14T12:31:38;10.80;94.30
21108;DHT22;10712;52.944;9.098;2024-02-14T12:34:04;10.80;94.30
21108;DHT22;10712;52.944;9.098;2024-02-14T12:36:31;10.90;94.30
21108;DHT22;10712;52.944;9.098;2024-02-14T12:39:01;10.90;94.30
21108;DHT22;10712;52.944;9.098;2024-02-14T12:41:28;10.90;94.30
21108;DHT22;10712;52.944;9.098;2024-02-14T12:44:01;10.90;94.30
21108;DHT22;10712;52.944;9.098;2024-02-14T12:46:27;10.90;94.30
21108;DHT22;10712;52.944;9.098;2024-02-14T12:48:54;11.00;94.30
21108;DHT22;10712;52.944;9.098;2024-02-14T12:51:19;10.90;94.30
21108;DHT22;10712;52.944;9.098;2024-02-14T12:53:45;10.90;94.30
21108;DHT22;10712;52.944;9.098;2024-02-14T12:56:11;11.00;94.30
21108;DHT22;10712;52.944;9.098;2024-02-14T12:58:38;11.00;94.30
21108;DHT22;10712;52.944;9.098;2024-02-14T13:01:04;11.00;94.30
21108;DHT22;10712;52.944;9.098;2024-02-14T13:03:36;11.00;94.30
21108;DHT22;10712;52.944;9.098;2024-02-14T13:06:02;11.00;94.30
21108;DHT22;10712;52.944;9.098;2024-02-14T13:08:28;11.00;94.30
21108;DHT22;10712;52.944;9.098;2024-02-14T13:10:54;11.00;94.30
21108;DHT22;10712;52.944;9.098;2024-02-14T13:13:20;11.10;94.30
21108;DHT22;10712;52.944;9.098;2024-02-14T13:15:45;11.10;94.30
21108;DHT22;10712;52.944;9.098;2024-02-14T13:18:11;11.10;94.30
21108;DHT22;10712;52.944;9.098;2024-02-14T13:20:37;11.10;94.30
21108;DHT22;10712;52.944;9.098;2024-02-14T13:23:04;11.20;94.30
21108;DHT22;10712;52.944;9.098;2024-02-14T13:25:35;11.20;94.30
21108;DHT22;10712;52.944;9.098;2024-02-14T13:28:02;11.20;94.30
21108;DHT22;10712;52.944;9.098;2024-02-14T13:30:29;11.20;94.30
21108;DHT22;10712;52.944;9.098;2024-02-14T13:32:55;11.20;94.30
21108;DHT22;10712;52.944;9.098;2024-02-14T13:35:21;11.20;94.30
21108;DHT22;10712;52.944;9.098;2024-02-14T13:37:47;11.20;94.30
21108;DHT22;10712;52.944;9.098;2024-02-14T13:40:13;11.20;94.30
21108;DHT22;10712;52.944;9.098;2024-02-14T13:42:40;11.20;94.30
21108;DHT22;10712;52.944;9.098;2024-02-14T13:45:06;11.20;94.30
21108;DHT22;10712;52.944;9.098;2024-02-14T13:47:39;11.20;94.30
21108;DHT22;10712;52.944;9.098;2024-02-14T13:50:07;11.20;94.30
21108;DHT22;10712;52.944;9.098;2024-02-14T13:52:34;11.20;94.30
21108;DHT22;10712;52.944;9.098;2024-02-14T13:55:03;11.20;94.30
21108;DHT22;10712;52.944;9.098;2024-02-14T13:57:39;11.20;94.30
21108;DHT22;10712;52.944;9.098;2024-02-14T14:00:06;11.30;94.30
21108;DHT22;10712;52.944;9.098;2024-02-14T14:02:38;11.20;94.30
21108;DHT22;10712;52.944;9.098;2024-02-14T14:05:08;11.30;94.30
21108;DHT22;10712;52.944;9.098;2024-02-14T14:07:38;11.30;94.30
21108;DHT22;10712;52.944;9.098;2024-02-14T14:10:08;11.30;94.30
21108;DHT22;10712;52.944;9.098;2024-02-14T14:12:35;11.30;94.30
21108;DHT22;10712;52.944;9.098;2024-02-14T14:15:02;11.30;94.30
21108;DHT22;10712;52.944;9.098;2024-02-14T14:17:29;11.30;94.30
21108;DHT22;10712;52.944;9.098;2024-02-14T14:19:55;11.30;94.30
21108;DHT22;10712;52.944;9.098;2024-02-14T14:22:21;11.30;94.30
21108;DHT22;10712;52.944;9.098;2024-02-14T14:24:47;11.30;94.30
21108;DHT22;10712;52.944;9.098;2024-02-14T14:27:13;11.30;94.30
21108;DHT22;10712;52.944;9.098;2024-02-14T14:29:40;11.30;94.30
21108;DHT22;10712;52.944;9.098;2024-02-14T14:32:07;11.30;94.30
21108;DHT22;10712;52.944;9.098;2024-02-14T14:34:34;11.30;94.30
21108;DHT22;10712;52.944;9.098;2024-02-14T14:37:00;11.30;94.30
21108;DHT22;10712;52.944;9.098;2024-02-14T14:39:26;11.30;94.30
21108;DHT22;10712;52.944;9.098;2024-02-14T14:41:52;11.30;94.30
21108;DHT22;10712;52.944;9.098;2024-02-14T14:44:26;11.30;94.30
21108;DHT22;10712;52.944;9.098;2024-02-14T14:46:53;11.30;94.30
21108;DHT22;10712;52.944;9.098;2024-02-14T14:49:19;11.30;94.30
21108;DHT22;10712;52.944;9.098;2024-02-14T14:51:45;11.20;94.30
21108;DHT22;10712;52.944;9.098;2024-02-14T14:54:11;11.30;94.30
21108;DHT22;10712;52.944;9.098;2024-02-14T14:56:37;11.20;94.30
21108;DHT22;10712;52.944;9.098;2024-02-14T14:59:03;11.20;94.30
21108;DHT22;10712;52.944;9.098;2024-02-14T15:01:35;11.20;94.30
21108;DHT22;10712;52.944;9.098;2024-02-14T15:04:02;11.20;94.30
21108;DHT22;10712;52.944;9.098;2024-02-14T15:06:28;11.20;94.30
21108;DHT22;10712;52.944;9.098;2024-02-14T15:08:54;11.20;94.30
21108;DHT22;10712;52.944;9.098;2024-02-14T15:11:20;11.20;94.30
21108;DHT22;10712;52.944;9.098;2024-02-14T15:13:47;11.20;94.30
21108;DHT22;10712;52.944;9.098;2024-02-14T15:16:13;11.20;94.30
21108;DHT22;10712;52.944;9.098;2024-02-14T15:18:40;11.20;94.30
21108;DHT22;10712;52.944;9.098;2024-02-14T15:21:11;11.20;94.30
21108;DHT22;10712;52.944;9.098;2024-02-14T15:23:37;11.20;94.30
21108;DHT22;10712;52.944;9.098;2024-02-14T15:26:03;11.20;94.30
21108;DHT22;10712;52.944;9.098;2024-02-14T15:28:32;11.20;94.30
21108;DHT22;10712;52.944;9.098;2024-02-14T15:31:08;11.20;94.30
21108;DHT22;10712;52.944;9.098;2024-02-14T15:33:53;11.10;94.30
21108;DHT22;10712;52.944;9.098;2024-02-14T15:36:21;11.10;94.30
21108;DHT22;10712;52.944;9.098;2024-02-14T15:38:47;11.10;94.30